MPTO/PTY METAR and TAF weather

Enter ICAO airport designator
Station Type Date Time Source
MPTO METAR 2022/08/16 19:00 UTC NOAA

MPTO 161900Z 14007KT 9999 SCT018 SCT090 29/24 Q1012 NOSIG


Station Type Date Time Source
MPTO Decoded METAR 2022/08/16 19:00 UTC NOAA

Tocumen, Panama (MPTO) 09-03N 079-22W
Aug 16, 2022 - 03:00 PM EDT / 2022.08.16 1900 UTC
Wind: from the SE (140 degrees) at 8 MPH (7 KT):0
Visibility: greater than 7 mile(s):0
Sky conditions: partly cloudy
Temperature: 84 F (29 C)
Dew Point: 75 F (24 C)
Relative Humidity: 74%
Pressure (altimeter): 29.88 in. Hg (1012 hPa)
ob: MPTO 161900Z 14007KT 9999 SCT018 SCT090 29/24 Q1012 NOSIG
cycle: 19

Station Type Date Time Source
MPTO TAF 2022/08/16 18:22 UTC NOAA

TAF MPTO 161720Z 1618/1724 28005KT 9999 SCT018
BECMG 1618/1621 13006KT PROB30
TEMPO 1621/1701 18006KT 7000 TSRA SCT015CB SCT090
TEMPO 1701/1704 03002KT
TEMPO 1704/1708 VRB02KT FEW018

Example: see airport list